Time;durP1;ratioP1;P1;durP2;ratioP2;P2;SDS_P1;SDS_P2;PMS_P1;PMS_P2;Temp;Humidity;BMP_temperature;BMP_pressure;BME280_temperature;BME280_humidity;BME280_pressure;Samples;Min_cycle;Max_cycle;Signal;HPM_P1;HPM_P2
2023/04/14 00:00:09;;;;;;;7.20;3.73;;;8.70;1.00;;;;;;5064544;28;20196;-88
2023/04/14 00:02:35;;;;;;;7.50;3.20;;;8.60;1.00;;;;;;5092373;28;20197;-88
2023/04/14 00:05:03;;;;;;;8.90;3.60;;;8.60;1.00;;;;;;5063954;28;20179;-86
2023/04/14 00:07:34;;;;;;;9.03;3.37;;;8.50;1.00;;;;;;5078086;28;20268;-90
2023/04/14 00:10:03;;;;;;;7.20;2.70;;;8.50;1.00;;;;;;5061200;28;20199;-91
2023/04/14 00:12:29;;;;;;;8.03;3.83;;;8.50;1.00;;;;;;5061644;28;20647;-91
2023/04/14 00:14:54;;;;;;;10.13;3.20;;;8.60;1.00;;;;;;5062921;28;20209;-92
2023/04/14 00:17:20;;;;;;;5.70;2.90;;;8.50;1.00;;;;;;5059726;28;20204;-91
2023/04/14 00:19:46;;;;;;;10.37;3.40;;;8.40;1.00;;;;;;5063979;28;20271;-92
2023/04/14 00:22:15;;;;;;;9.13;2.97;;;8.30;1.00;;;;;;5061580;28;20577;-89
2023/04/14 00:24:45;;;;;;;7.77;2.87;;;8.20;1.00;;;;;;5078056;28;20183;-90
2023/04/14 00:27:12;;;;;;;6.67;2.80;;;8.20;1.00;;;;;;5060094;28;20694;-91
2023/04/14 00:29:38;;;;;;;7.93;2.87;;;8.20;1.00;;;;;;5096158;28;20177;-88
2023/04/14 00:32:05;;;;;;;8.97;2.93;;;8.10;1.00;;;;;;5068351;28;20195;-89
2023/04/14 00:34:34;;;;;;;6.00;2.63;;;8.10;1.00;;;;;;5060561;28;20176;-91
2023/04/14 00:37:00;;;;;;;7.03;2.53;;;8.00;1.00;;;;;;5059633;28;20267;-92
2023/04/14 00:39:26;;;;;;;7.10;2.80;;;7.90;1.00;;;;;;5059913;28;20261;-91
2023/04/14 00:41:51;;;;;;;6.40;2.40;;;8.00;1.00;;;;;;5059870;28;20203;-91
2023/04/14 00:44:17;;;;;;;7.23;2.97;;;8.00;1.00;;;;;;5076658;28;20189;-91
2023/04/14 00:46:43;;;;;;;5.73;2.37;;;8.20;1.00;;;;;;5060079;28;20553;-91
2023/04/14 00:49:08;;;;;;;8.20;2.87;;;8.00;1.00;;;;;;5073782;28;20203;-90
2023/04/14 00:51:36;;;;;;;8.40;2.93;;;8.10;1.00;;;;;;5065140;28;20241;-92
2023/04/14 00:54:09;;;;;;;5.83;2.93;;;8.20;1.00;;;;;;5062732;28;20191;-90
2023/04/14 00:56:35;;;;;;;5.83;2.60;;;8.30;1.00;;;;;;5063304;28;20188;-88
2023/04/14 00:59:01;;;;;;;6.37;3.20;;;8.10;1.00;;;;;;5074455;28;20188;-88
2023/04/14 01:01:28;;;;;;;7.20;3.27;;;8.10;1.00;;;;;;5083509;28;20180;-89
2023/04/14 01:03:55;;;;;;;5.90;2.67;;;8.20;1.00;;;;;;5083933;28;20211;-90
2023/04/14 01:06:20;;;;;;;6.67;2.73;;;8.10;1.00;;;;;;5069911;28;20224;-88
2023/04/14 01:08:48;;;;;;;5.67;3.23;;;8.00;1.00;;;;;;5063953;28;20185;-86
2023/04/14 01:11:34;;;;;;;6.13;2.83;;;8.00;1.00;;;;;;5061700;28;20184;-88
2023/04/14 01:14:46;;;;;;;6.47;3.23;;;8.00;1.00;;;;;;5060263;28;20176;-87
2023/04/14 01:17:34;;;;;;;7.30;2.73;;;8.00;1.00;;;;;;5051237;28;20578;-87
2023/04/14 01:20:21;;;;;;;8.07;3.03;;;8.00;1.00;;;;;;5059538;28;20180;-86
2023/04/14 01:22:53;;;;;;;7.53;3.17;;;7.90;1.00;;;;;;5059786;28;20187;-87
2023/04/14 01:25:40;;;;;;;6.93;3.27;;;7.90;1.00;;;;;;5059690;28;20188;-86
2023/04/14 01:28:29;;;;;;;9.43;3.23;;;8.00;1.00;;;;;;5059107;28;20628;-88
2023/04/14 01:31:20;;;;;;;10.33;3.20;;;8.00;1.00;;;;;;5040744;28;20204;-86
2023/04/14 01:33:53;;;;;;;7.97;3.40;;;8.00;1.00;;;;;;5061322;28;20180;-90
2023/04/14 01:36:27;;;;;;;6.03;3.03;;;7.90;1.00;;;;;;5060263;28;20191;-90
2023/04/14 01:38:55;;;;;;;8.67;2.90;;;8.10;1.00;;;;;;5060519;28;20176;-87
2023/04/14 01:41:23;;;;;;;6.63;3.00;;;8.10;1.00;;;;;;5080981;28;20172;-87
2023/04/14 01:43:52;;;;;;;8.07;3.57;;;8.20;1.00;;;;;;5076162;28;20191;-88
2023/04/14 01:46:21;;;;;;;9.90;3.73;;;8.30;1.00;;;;;;5067884;28;20230;-90
2023/04/14 01:48:48;;;;;;;6.97;3.63;;;8.40;1.00;;;;;;5060289;28;20199;-87
2023/04/14 01:51:17;;;;;;;5.77;2.70;;;8.40;1.00;;;;;;5059499;28;20212;-87
2023/04/14 01:53:45;;;;;;;6.83;2.87;;;8.50;1.00;;;;;;5060486;28;20203;-88
2023/04/14 01:56:13;;;;;;;6.47;3.13;;;8.50;1.00;;;;;;5063197;28;20180;-87
2023/04/14 01:58:41;;;;;;;7.57;3.30;;;8.30;1.00;;;;;;5082620;28;20311;-87
2023/04/14 02:01:10;;;;;;;7.33;3.33;;;8.40;1.00;;;;;;5078605;28;20206;-86
2023/04/14 02:03:39;;;;;;;7.33;3.43;;;8.40;1.00;;;;;;5084305;28;20555;-86
2023/04/14 02:06:12;;;;;;;8.77;3.30;;;8.50;1.00;;;;;;5061249;28;20220;-88
2023/04/14 02:08:40;;;;;;;10.47;3.13;;;8.40;1.00;;;;;;5059681;28;20663;-88
2023/04/14 02:11:08;;;;;;;7.30;3.17;;;8.40;1.00;;;;;;5059544;28;20187;-87
2023/04/14 02:13:36;;;;;;;6.67;3.30;;;8.40;1.00;;;;;;5059485;28;20187;-90
2023/04/14 02:16:03;;;;;;;7.07;3.20;;;8.60;1.00;;;;;;5059771;28;20180;-88
2023/04/14 02:18:30;;;;;;;5.70;2.97;;;8.50;1.00;;;;;;5075212;28;20188;-88
2023/04/14 02:21:00;;;;;;;5.10;2.77;;;8.40;1.00;;;;;;5074782;28;20238;-90
2023/04/14 02:23:30;;;;;;;5.20;2.77;;;8.50;1.00;;;;;;5062006;28;20180;-88
2023/04/14 02:26:13;;;;;;;5.30;2.93;;;8.60;1.00;;;;;;5059530;28;20559;-88
2023/04/14 02:28:57;;;;;;;6.93;3.30;;;8.50;1.00;;;;;;5059062;28;20924;-89
2023/04/14 02:31:26;;;;;;;7.20;3.67;;;8.50;1.00;;;;;;5061138;28;20180;-89
2023/04/14 02:33:54;;;;;;;5.93;3.07;;;8.80;1.00;;;;;;5061504;28;20214;-88
2023/04/14 02:36:31;;;;;;;6.90;3.07;;;8.70;1.00;;;;;;5063280;28;20198;-88
2023/04/14 02:39:09;;;;;;;8.23;4.20;;;8.60;1.00;;;;;;5067753;28;20176;-89
2023/04/14 02:41:39;;;;;;;9.77;3.87;;;8.50;1.00;;;;;;5063137;28;20194;-89
2023/04/14 02:44:20;;;;;;;8.57;3.80;;;8.50;1.00;;;;;;5059916;28;20183;-85
2023/04/14 02:47:09;;;;;;;8.37;4.10;;;8.40;1.00;;;;;;5059169;28;20214;-87
2023/04/14 02:49:45;;;;;;;6.50;3.47;;;8.20;1.00;;;;;;5059723;28;20188;-85
2023/04/14 02:52:14;;;;;;;8.90;4.40;;;8.30;1.00;;;;;;5084798;28;20205;-84
2023/04/14 02:54:44;;;;;;;8.47;3.70;;;8.10;1.00;;;;;;5072814;28;20184;-88
2023/04/14 02:57:10;;;;;;;8.00;3.90;;;8.10;1.00;;;;;;5062846;28;20177;-87
2023/04/14 02:59:37;;;;;;;8.03;3.50;;;8.00;1.00;;;;;;5070815;28;20592;-88
2023/04/14 03:02:04;;;;;;;10.80;3.83;;;7.90;1.00;;;;;;5095127;28;20192;-84
2023/04/14 03:04:37;;;;;;;7.07;3.40;;;8.00;1.00;;;;;;5072730;28;20184;-87
2023/04/14 03:07:04;;;;;;;6.53;2.83;;;8.00;1.00;;;;;;5065666;28;20293;-89
2023/04/14 03:09:31;;;;;;;5.97;2.90;;;7.70;1.00;;;;;;5059959;28;20187;-89
2023/04/14 03:11:57;;;;;;;6.30;3.07;;;7.60;1.00;;;;;;5060593;28;20184;-87
2023/04/14 03:14:27;;;;;;;8.40;2.90;;;8.00;1.00;;;;;;5059741;28;20183;-88
2023/04/14 03:16:54;;;;;;;6.83;3.17;;;7.80;1.00;;;;;;5059522;28;20208;-89
2023/04/14 03:19:22;;;;;;;8.70;3.30;;;7.90;1.00;;;;;;5075153;28;20268;-89
2023/04/14 03:21:49;;;;;;;4.00;2.50;;;7.90;1.00;;;;;;5056818;28;20180;-90
2023/04/14 03:24:29;;;;;;;6.70;2.97;;;7.70;1.00;;;;;;5056931;28;20535;-86
2023/04/14 03:27:20;;;;;;;6.47;3.07;;;7.60;1.00;;;;;;5057866;28;20678;-90
2023/04/14 03:29:50;;;;;;;9.10;2.97;;;7.70;1.00;;;;;;5075558;28;20157;-93
2023/04/14 03:32:17;;;;;;;5.93;2.87;;;7.70;1.00;;;;;;5074017;28;20176;-87
2023/04/14 03:34:47;;;;;;;7.13;3.33;;;7.80;1.00;;;;;;5057914;28;20245;-89
2023/04/14 03:37:16;;;;;;;7.60;2.90;;;7.80;1.00;;;;;;5058224;28;20183;-90
2023/04/14 03:39:44;;;;;;;5.23;2.90;;;7.90;1.00;;;;;;5057524;28;20204;-88
2023/04/14 03:42:11;;;;;;;7.67;3.20;;;8.10;1.00;;;;;;5057696;28;20176;-87
2023/04/14 03:44:41;;;;;;;6.87;3.07;;;8.30;1.00;;;;;;5074895;28;20199;-87
2023/04/14 03:47:09;;;;;;;5.83;3.10;;;8.20;1.00;;;;;;5079865;28;20204;-88
2023/04/14 03:49:37;;;;;;;8.67;3.80;;;8.10;1.00;;;;;;5081381;28;20192;-89
2023/04/14 03:52:07;;;;;;;8.47;3.43;;;8.10;1.00;;;;;;5067443;28;20215;-90
2023/04/14 03:54:40;;;;;;;8.63;3.23;;;8.20;1.00;;;;;;5062119;28;20255;-90
2023/04/14 03:57:07;;;;;;;8.43;2.80;;;8.30;1.00;;;;;;5056690;28;20176;-91
2023/04/14 03:59:35;;;;;;;6.10;3.20;;;8.30;1.00;;;;;;5055935;28;20203;-91
2023/04/14 04:02:01;;;;;;;6.60;3.50;;;8.40;1.00;;;;;;5057923;28;20180;-90
2023/04/14 04:04:29;;;;;;;7.37;3.00;;;8.50;1.00;;;;;;5062602;28;20266;-90
2023/04/14 04:06:57;;;;;;;6.93;2.90;;;8.50;1.00;;;;;;5080574;28;20287;-91
2023/04/14 04:09:23;;;;;;;11.23;3.73;;;8.50;1.00;;;;;;5080973;28;20270;-90
2023/04/14 04:11:55;;;;;;;6.17;3.00;;;8.50;1.00;;;;;;5065047;28;20565;-90
2023/04/14 04:14:27;;;;;;;7.20;3.30;;;8.60;1.00;;;;;;5069496;28;20637;-88
2023/04/14 04:16:54;;;;;;;5.13;3.43;;;8.40;1.00;;;;;;5058140;28;20227;-86
2023/04/14 04:19:22;;;;;;;7.40;3.20;;;8.40;1.00;;;;;;5058830;28;20232;-87
2023/04/14 04:21:50;;;;;;;8.97;3.90;;;8.40;1.00;;;;;;5068448;28;20169;-90
2023/04/14 04:24:18;;;;;;;10.17;3.60;;;8.40;1.00;;;;;;5079701;28;20183;-88
2023/04/14 04:26:44;;;;;;;8.37;3.73;;;8.40;1.00;;;;;;5069542;28;20215;-87
2023/04/14 04:29:11;;;;;;;6.23;3.10;;;8.50;1.00;;;;;;5058108;28;20180;-87
2023/04/14 04:31:39;;;;;;;11.17;3.90;;;8.60;1.00;;;;;;5055828;28;20191;-88
2023/04/14 04:34:08;;;;;;;8.63;4.13;;;8.50;1.00;;;;;;5057476;28;20647;-87
2023/04/14 04:36:35;;;;;;;8.27;3.73;;;8.50;1.00;;;;;;5061063;28;20173;-91
2023/04/14 04:39:01;;;;;;;9.33;3.83;;;8.30;1.00;;;;;;5079489;28;20226;-88
2023/04/14 04:41:28;;;;;;;6.83;3.63;;;8.30;1.00;;;;;;5056848;28;20180;-90
2023/04/14 04:43:58;;;;;;;9.07;3.73;;;8.40;1.00;;;;;;5055700;28;20184;-88
2023/04/14 04:46:53;;;;;;;11.20;3.90;;;8.40;1.00;;;;;;5058098;28;20219;-90
2023/04/14 04:49:21;;;;;;;9.27;3.87;;;8.40;1.00;;;;;;5056499;28;20185;-88
2023/04/14 04:51:51;;;;;;;8.30;4.00;;;8.50;1.00;;;;;;5057476;28;20203;-89
2023/04/14 04:54:21;;;;;;;10.43;4.03;;;8.40;1.00;;;;;;5056533;28;20648;-85
2023/04/14 04:56:50;;;;;;;13.20;4.40;;;8.50;1.00;;;;;;5060186;28;20207;-88
2023/04/14 04:59:16;;;;;;;8.80;3.90;;;8.60;1.00;;;;;;5057980;28;20200;-88
2023/04/14 05:01:41;;;;;;;8.37;3.40;;;8.60;1.00;;;;;;5062095;28;20275;-89
2023/04/14 05:04:07;;;;;;;8.70;3.73;;;8.50;1.00;;;;;;5058935;28;20177;-87
2023/04/14 05:06:36;;;;;;;11.03;3.87;;;8.50;1.00;;;;;;5058445;28;20216;-88
2023/04/14 05:09:03;;;;;;;4.77;2.60;;;8.30;1.00;;;;;;5058528;28;20233;-89
2023/04/14 05:11:30;;;;;;;5.90;2.50;;;8.10;1.00;;;;;;5061861;28;20598;-89
2023/04/14 05:13:55;;;;;;;7.03;2.57;;;8.00;1.00;;;;;;5076189;28;20203;-89
2023/04/14 05:16:21;;;;;;;5.77;2.70;;;8.00;1.00;;;;;;5060546;28;20551;-90
2023/04/14 05:18:47;;;;;;;9.47;3.33;;;8.20;1.00;;;;;;5057307;28;20184;-91
2023/04/14 05:21:14;;;;;;;9.63;3.30;;;8.10;1.00;;;;;;5056711;28;20187;-93
2023/04/14 05:23:42;;;;;;;5.53;2.73;;;8.20;1.00;;;;;;5073780;28;20659;-87
2023/04/14 05:26:09;;;;;;;8.00;3.00;;;8.20;1.00;;;;;;5055790;28;20219;-90
2023/04/14 05:28:35;;;;;;;7.23;2.47;;;8.30;1.00;;;;;;5066110;28;20259;-85
2023/04/14 05:31:03;;;;;;;7.43;2.50;;;8.40;1.00;;;;;;5055609;28;20183;-88
2023/04/14 05:33:29;;;;;;;8.87;3.30;;;8.40;1.00;;;;;;5057892;28;20253;-86
2023/04/14 05:35:54;;;;;;;7.03;2.90;;;8.60;1.00;;;;;;5059666;28;20184;-87
2023/04/14 05:38:23;;;;;;;5.67;2.53;;;8.70;1.00;;;;;;5060124;28;20644;-88
2023/04/14 05:40:49;;;;;;;7.33;2.70;;;8.90;1.00;;;;;;5059646;28;20211;-89
2023/04/14 05:43:16;;;;;;;5.53;3.13;;;8.90;1.00;;;;;;5073281;28;20176;-86
2023/04/14 05:45:42;;;;;;;8.00;3.60;;;9.00;1.00;;;;;;5079787;28;20224;-89
2023/04/14 05:48:08;;;;;;;9.50;3.77;;;9.20;1.00;;;;;;5074156;28;20199;-92
2023/04/14 05:50:40;;;;;;;6.80;2.73;;;9.30;1.00;;;;;;5085699;28;20180;-90
2023/04/14 05:53:06;;;;;;;5.93;2.53;;;9.50;1.00;;;;;;5060632;28;20271;-87
2023/04/14 05:55:33;;;;;;;7.53;2.87;;;9.40;1.00;;;;;;5060612;28;20183;-90
2023/04/14 05:57:59;;;;;;;6.23;3.10;;;9.50;1.00;;;;;;5061732;28;20184;-91
2023/04/14 06:00:24;;;;;;;7.17;3.17;;;9.50;1.00;;;;;;5070483;28;20207;-90
2023/04/14 06:02:51;;;;;;;8.70;3.03;;;9.30;1.00;;;;;;5061182;28;20191;-90
2023/04/14 06:05:19;;;;;;;8.30;2.90;;;9.40;1.00;;;;;;5063724;28;20256;-88
2023/04/14 06:07:46;;;;;;;7.13;2.67;;;9.30;1.00;;;;;;5081869;28;20189;-88
2023/04/14 06:10:12;;;;;;;6.13;2.70;;;9.30;1.00;;;;;;5079844;28;20176;-90
2023/04/14 06:12:37;;;;;;;7.20;2.77;;;9.30;1.00;;;;;;5077770;28;20184;-89
2023/04/14 06:15:04;;;;;;;6.50;3.00;;;9.30;1.00;;;;;;5064409;28;20181;-88
2023/04/14 06:17:31;;;;;;;6.50;2.60;;;9.40;1.00;;;;;;5059475;28;20208;-89
2023/04/14 06:19:57;;;;;;;7.80;3.00;;;9.50;1.00;;;;;;5042640;28;20188;-88
2023/04/14 06:22:27;;;;;;;5.50;2.80;;;9.60;1.00;;;;;;5068161;28;20185;-90
2023/04/14 06:24:56;;;;;;;5.77;2.63;;;9.60;1.00;;;;;;5064891;28;20184;-90
2023/04/14 06:27:24;;;;;;;5.73;2.50;;;9.50;1.00;;;;;;5067229;28;20208;-86
2023/04/14 06:29:50;;;;;;;6.37;2.67;;;9.30;1.00;;;;;;5080848;28;20173;-89
2023/04/14 06:32:19;;;;;;;6.70;2.40;;;9.60;1.00;;;;;;5081085;28;20239;-89
2023/04/14 06:34:52;;;;;;;6.77;2.90;;;9.40;1.00;;;;;;5081939;28;20160;-88
2023/04/14 06:37:18;;;;;;;6.73;2.83;;;9.40;1.00;;;;;;5069423;28;20180;-90
2023/04/14 06:39:45;;;;;;;5.30;2.37;;;9.40;1.00;;;;;;5064428;28;20184;-89
2023/04/14 06:42:14;;;;;;;7.73;2.70;;;9.30;1.00;;;;;;5061508;28;20207;-90
2023/04/14 06:44:40;;;;;;;6.93;2.40;;;9.10;1.00;;;;;;5062478;28;20397;-91
2023/04/14 06:47:06;;;;;;;5.10;2.37;;;9.10;1.00;;;;;;5073734;28;20215;-91
2023/04/14 06:49:32;;;;;;;6.37;2.47;;;9.10;1.00;;;;;;5064243;28;20181;-92
2023/04/14 06:51:58;;;;;;;5.53;2.43;;;9.10;1.00;;;;;;5074487;28;20180;-90
2023/04/14 06:54:30;;;;;;;7.13;2.53;;;9.10;1.00;;;;;;5062274;28;20172;-88
2023/04/14 06:56:56;;;;;;;6.07;2.30;;;9.20;1.00;;;;;;5059947;28;20177;-90
2023/04/14 06:59:26;;;;;;;6.67;3.30;;;9.40;1.00;;;;;;5059054;28;20188;-89
2023/04/14 07:01:53;;;;;;;9.63;3.53;;;9.60;1.00;;;;;;5058991;28;20189;-90
2023/04/14 07:04:19;;;;;;;5.53;2.20;;;9.90;1.00;;;;;;5056616;28;20338;-89
2023/04/14 07:06:45;;;;;;;5.60;2.17;;;10.10;1.00;;;;;;5068586;28;20226;-88
2023/04/14 07:09:10;;;;;;;4.37;2.17;;;10.00;1.00;;;;;;5067998;28;20175;-90
2023/04/14 07:11:36;;;;;;;7.97;2.57;;;10.20;1.00;;;;;;5074646;28;20573;-92
2023/04/14 07:14:02;;;;;;;5.50;1.97;;;10.20;1.00;;;;;;5071095;28;20196;-90
2023/04/14 07:16:27;;;;;;;4.50;2.30;;;10.00;1.00;;;;;;5068433;28;20230;-93
2023/04/14 07:18:53;;;;;;;8.90;2.80;;;10.00;1.00;;;;;;5073740;28;20199;-92
2023/04/14 07:21:19;;;;;;;7.47;2.93;;;10.10;1.00;;;;;;5072097;28;20199;-90
2023/04/14 07:23:45;;;;;;;9.53;2.40;;;10.20;1.00;;;;;;5070670;28;20184;-89
2023/04/14 07:26:11;;;;;;;5.77;2.40;;;10.10;1.00;;;;;;5059621;28;20216;-88
2023/04/14 07:28:37;;;;;;;6.57;2.53;;;10.20;1.00;;;;;;5079031;28;20192;-88
2023/04/14 07:31:11;;;;;;;8.13;3.10;;;10.20;1.00;;;;;;5062506;28;20184;-89
2023/04/14 07:33:37;;;;;;;7.00;3.13;;;10.00;1.00;;;;;;5061987;28;20191;-91
2023/04/14 07:36:08;;;;;;;5.07;2.37;;;10.00;1.00;;;;;;5061641;28;20594;-89
2023/04/14 07:38:34;;;;;;;5.40;2.80;;;10.00;1.00;;;;;;5066498;28;20248;-91
2023/04/14 07:41:03;;;;;;;6.77;2.17;;;10.00;1.00;;;;;;5062531;28;20199;-87
2023/04/14 07:43:33;;;;;;;6.33;2.40;;;10.00;1.00;;;;;;5057683;28;20176;-87
2023/04/14 07:46:03;;;;;;;7.43;2.80;;;10.10;1.00;;;;;;5057867;28;20212;-89
2023/04/14 07:48:31;;;;;;;4.27;2.10;;;10.20;1.00;;;;;;5059004;28;20192;-88
2023/04/14 07:50:57;;;;;;;5.80;3.00;;;10.50;1.00;;;;;;5064271;28;20168;-86
2023/04/14 07:53:25;;;;;;;6.60;2.73;;;10.60;1.00;;;;;;5075270;28;20183;-87
2023/04/14 07:55:50;;;;;;;27.07;17.77;;;10.90;1.00;;;;;;5058369;28;20210;-89
2023/04/14 07:58:16;;;;;;;9.07;5.83;;;10.90;1.00;;;;;;5060064;28;20180;-87
2023/04/14 08:00:42;;;;;;;5.40;2.90;;;10.90;1.00;;;;;;5069658;28;20640;-89
2023/04/14 08:03:08;;;;;;;5.87;2.43;;;11.10;1.00;;;;;;5059296;28;20191;-87
2023/04/14 08:05:35;;;;;;;6.10;2.10;;;11.20;1.00;;;;;;5059169;28;20214;-88
2023/04/14 08:08:00;;;;;;;7.33;2.07;;;11.50;1.00;;;;;;5065274;28;20188;-87
2023/04/14 08:10:26;;;;;;;7.33;2.73;;;11.40;1.00;;;;;;5064085;28;20176;-87
2023/04/14 08:12:52;;;;;;;3.97;2.20;;;11.40;1.00;;;;;;5061320;28;20196;-87
2023/04/14 08:15:18;;;;;;;4.50;2.20;;;11.70;1.00;;;;;;5060459;28;20208;-85
2023/04/14 08:17:43;;;;;;;5.43;1.93;;;11.70;1.00;;;;;;5060784;28;20236;-88
2023/04/14 08:20:11;;;;;;;6.07;1.87;;;11.70;1.00;;;;;;5064351;28;20242;-86
2023/04/14 08:22:42;;;;;;;5.23;1.97;;;11.60;1.00;;;;;;5067155;28;20176;-87
2023/04/14 08:25:10;;;;;;;4.17;2.00;;;11.70;1.00;;;;;;5060934;28;20177;-87
2023/04/14 08:27:37;;;;;;;3.80;1.73;;;11.80;1.00;;;;;;5061031;28;20217;-86
2023/04/14 08:30:04;;;;;;;8.53;5.00;;;12.00;1.00;;;;;;5060707;28;20284;-88
2023/04/14 08:32:30;;;;;;;6.47;2.40;;;12.20;1.00;;;;;;5060517;28;20188;-88
2023/04/14 08:34:57;;;;;;;3.80;1.80;;;12.30;1.00;;;;;;5061383;28;20327;-86
2023/04/14 08:37:23;;;;;;;6.07;1.97;;;12.40;1.00;;;;;;5061522;28;20207;-88
2023/04/14 08:39:50;;;;;;;4.20;1.70;;;12.50;1.00;;;;;;5081082;28;20254;-88
2023/04/14 08:42:16;;;;;;;8.53;2.13;;;12.30;1.00;;;;;;5060948;28;20181;-89
2023/04/14 08:44:42;;;;;;;4.23;2.00;;;12.50;1.00;;;;;;5074608;28;20243;-88
2023/04/14 08:47:08;;;;;;;3.40;1.60;;;12.70;1.00;;;;;;5074826;28;20223;-89
2023/04/14 08:49:42;;;;;;;8.70;1.90;;;12.90;1.00;;;;;;5077738;28;20226;-86
2023/04/14 08:52:13;;;;;;;5.00;1.83;;;13.00;1.00;;;;;;5058081;28;20207;-86
2023/04/14 08:54:42;;;;;;;2.37;1.57;;;13.00;1.00;;;;;;5057260;28;20212;-88
2023/04/14 08:57:10;;;;;;;5.33;1.77;;;12.90;1.00;;;;;;5056905;28;20193;-87
2023/04/14 08:59:36;;;;;;;4.63;2.13;;;12.70;1.00;;;;;;5056831;28;20196;-88
2023/04/14 09:02:05;;;;;;;4.30;1.90;;;12.80;1.00;;;;;;5065551;28;20208;-88
2023/04/14 09:04:32;;;;;;;5.13;2.07;;;12.90;1.00;;;;;;5076868;28;20267;-88
2023/04/14 09:06:58;;;;;;;4.00;1.80;;;13.00;1.00;;;;;;5074023;28;20267;-87
2023/04/14 09:09:26;;;;;;;5.53;2.07;;;13.10;1.00;;;;;;5063568;28;20279;-88
2023/04/14 09:11:53;;;;;;;4.57;1.53;;;13.10;1.00;;;;;;5069767;28;20186;-88
2023/04/14 09:14:20;;;;;;;5.23;2.07;;;13.30;1.00;;;;;;5083090;28;20254;-88
2023/04/14 09:16:47;;;;;;;4.10;2.00;;;13.40;1.00;;;;;;5082459;28;20222;-86
2023/04/14 09:19:17;;;;;;;5.00;1.63;;;13.30;1.00;;;;;;5099338;28;20187;-88
2023/04/14 09:21:42;;;;;;;4.80;2.10;;;13.20;1.00;;;;;;5099787;28;20173;-87
2023/04/14 09:24:09;;;;;;;8.43;2.20;;;13.20;1.00;;;;;;5079644;28;20217;-88
2023/04/14 09:26:35;;;;;;;6.37;1.90;;;13.40;1.00;;;;;;5086886;28;20746;-88
2023/04/14 09:29:03;;;;;;;5.67;2.13;;;13.50;1.00;;;;;;5062376;28;20172;-87
2023/04/14 09:31:29;;;;;;;5.00;1.83;;;13.70;1.00;;;;;;5062007;28;20182;-86
2023/04/14 09:33:56;;;;;;;3.50;2.10;;;13.70;99.90;;;;;;5061857;28;20190;-88
2023/04/14 09:36:23;;;;;;;5.07;1.93;;;13.90;1.00;;;;;;5063541;28;20186;-86
2023/04/14 09:38:51;;;;;;;5.30;1.80;;;14.10;99.90;;;;;;5081150;28;20180;-86
2023/04/14 09:41:18;;;;;;;4.33;1.77;;;14.00;99.90;;;;;;5064615;28;20182;-86
2023/04/14 09:43:45;;;;;;;3.57;1.80;;;14.00;99.90;;;;;;5074500;28;20182;-88
2023/04/14 09:46:14;;;;;;;3.37;1.63;;;14.10;99.90;;;;;;5063900;28;20217;-86
2023/04/14 09:48:54;;;;;;;5.33;1.90;;;14.20;99.90;;;;;;5061732;28;20196;-86
2023/04/14 09:51:28;;;;;;;4.93;1.70;;;14.60;99.90;;;;;;5062156;28;20675;-86
2023/04/14 09:53:59;;;;;;;6.03;1.60;;;14.50;99.90;;;;;;5044929;28;20183;-86
2023/04/14 09:56:26;;;;;;;5.40;1.80;;;14.60;99.90;;;;;;5060078;28;20183;-88
2023/04/14 09:59:00;;;;;;;3.10;1.47;;;14.40;99.90;;;;;;5058384;28;20195;-87
2023/04/14 10:01:32;;;;;;;3.70;1.70;;;14.30;99.90;;;;;;5064875;28;20190;-87
2023/04/14 10:04:01;;;;;;;4.33;1.53;;;14.40;99.90;;;;;;5059999;28;20184;-88
2023/04/14 10:06:27;;;;;;;5.67;1.80;;;14.40;99.90;;;;;;5059998;28;20272;-88
2023/04/14 10:08:55;;;;;;;4.90;1.63;;;14.30;99.90;;;;;;5058971;28;20178;-87
2023/04/14 10:11:28;;;;;;;3.20;1.33;;;14.40;99.90;;;;;;5066134;28;20187;-86
2023/04/14 10:13:59;;;;;;;4.40;1.60;;;14.50;99.90;;;;;;5074204;28;20176;-87
2023/04/14 10:16:25;;;;;;;4.27;1.70;;;14.70;99.90;;;;;;5060164;28;20218;-87
2023/04/14 10:18:52;;;;;;;4.93;1.53;;;14.90;99.90;;;;;;5067141;28;20176;-88
2023/04/14 10:21:20;;;;;;;5.30;1.83;;;14.90;1.00;;;;;;5081061;28;20175;-87
2023/04/14 10:23:48;;;;;;;4.73;1.13;;;14.60;1.00;;;;;;5071011;28;20187;-88
2023/04/14 10:26:18;;;;;;;6.60;1.70;;;14.60;1.00;;;;;;5059056;28;20212;-88
2023/04/14 10:28:47;;;;;;;3.73;1.30;;;14.50;1.00;;;;;;5059227;28;20180;-89
2023/04/14 10:31:33;;;;;;;3.83;1.30;;;14.70;1.00;;;;;;5069622;28;20183;-89
2023/04/14 10:34:20;;;;;;;4.77;1.43;;;14.90;1.00;;;;;;5058718;28;20197;-87
2023/04/14 10:36:47;;;;;;;5.50;1.67;;;15.10;1.00;;;;;;5058997;28;20564;-87
2023/04/14 10:39:23;;;;;;;4.07;1.47;;;15.40;1.00;;;;;;5059239;28;20644;-87
2023/04/14 10:41:51;;;;;;;5.10;1.30;;;15.50;99.90;;;;;;5058829;28;20196;-86
2023/04/14 10:44:27;;;;;;;3.57;1.43;;;15.30;99.90;;;;;;5058910;28;20172;-87
2023/04/14 10:46:55;;;;;;;5.23;1.60;;;15.20;99.90;;;;;;5058339;28;20220;-88
2023/04/14 10:49:38;;;;;;;4.40;1.50;;;15.10;99.90;;;;;;5058962;28;20180;-87
2023/04/14 10:52:26;;;;;;;6.00;1.60;;;14.80;99.90;;;;;;5076742;28;20191;-88
2023/04/14 10:54:52;;;;;;;6.10;1.30;;;14.90;1.00;;;;;;5060086;28;20182;-87
2023/04/14 10:57:22;;;;;;;4.30;1.73;;;14.90;99.90;;;;;;5063133;28;20278;-86
2023/04/14 10:59:53;;;;;;;2.37;1.30;;;15.00;99.90;;;;;;5062152;28;20191;-87
2023/04/14 11:02:26;;;;;;;4.53;1.23;;;15.10;99.90;;;;;;5063493;28;20191;-88
2023/04/14 11:05:07;;;;;;;5.70;1.37;;;15.20;1.00;;;;;;5060737;28;20287;-88
2023/04/14 11:07:39;;;;;;;5.97;1.60;;;14.90;99.90;;;;;;5060691;28;20572;-88
2023/04/14 11:10:31;;;;;;;5.43;1.67;;;15.10;99.90;;;;;;5060105;28;20247;-87
2023/04/14 11:13:11;;;;;;;3.87;1.33;;;15.00;99.90;;;;;;5053743;28;20263;-87
2023/04/14 11:15:45;;;;;;;5.23;1.60;;;15.20;99.90;;;;;;5076475;28;20503;-88
2023/04/14 11:18:19;;;;;;;3.77;1.83;;;15.00;99.90;;;;;;5059446;28;20204;-87
2023/04/14 11:20:45;;;;;;;5.80;1.63;;;14.80;1.00;;;;;;5059534;28;20204;-87
2023/04/14 11:23:15;;;;;;;4.97;1.50;;;14.80;99.90;;;;;;5059883;28;20198;-88
2023/04/14 11:25:41;;;;;;;3.57;1.50;;;14.90;99.90;;;;;;5061146;28;20188;-87
2023/04/14 11:28:07;;;;;;;4.53;1.43;;;15.10;99.90;;;;;;5060082;28;20314;-86
2023/04/14 11:30:33;;;;;;;2.73;1.40;;;15.10;99.90;;;;;;5061123;28;20238;-86
2023/04/14 11:32:58;;;;;;;4.73;1.50;;;15.40;41.70;;;;;;5062930;28;20288;-88
2023/04/14 11:35:28;;;;;;;2.43;1.20;;;15.50;1.00;;;;;;5073750;28;20187;-86
2023/04/14 11:37:59;;;;;;;3.77;1.77;;;15.70;1.00;;;;;;5080486;28;20191;-87
2023/04/14 11:40:28;;;;;;;4.37;1.40;;;15.90;1.00;;;;;;5074862;28;20180;-88
2023/04/14 11:42:57;;;;;;;3.53;1.40;;;16.00;1.00;;;;;;5044702;28;20181;-86
2023/04/14 11:45:31;;;;;;;3.67;1.13;;;15.90;99.90;;;;;;5067461;28;20244;-87
2023/04/14 11:48:03;;;;;;;4.30;1.10;;;15.80;99.90;;;;;;5075663;28;20231;-87
2023/04/14 11:50:31;;;;;;;6.60;1.30;;;15.60;1.00;;;;;;5067506;28;20188;-87
2023/04/14 11:52:58;;;;;;;4.53;1.20;;;15.60;99.90;;;;;;5071854;28;20168;-88
2023/04/14 11:55:28;;;;;;;3.53;1.30;;;15.40;57.90;;;;;;5080164;28;20187;-86
2023/04/14 11:57:57;;;;;;;4.83;1.47;;;15.60;1.00;;;;;;5075548;28;20186;-87
2023/04/14 12:00:27;;;;;;;2.90;0.90;;;15.80;99.90;;;;;;5065857;28;20216;-88
2023/04/14 12:02:56;;;;;;;3.20;1.00;;;15.70;1.00;;;;;;5059238;28;20180;-88
2023/04/14 12:05:33;;;;;;;3.20;0.97;;;15.70;1.00;;;;;;5071986;28;20191;-86
2023/04/14 12:08:07;;;;;;;3.83;1.10;;;15.70;99.90;;;;;;5074172;28;20256;-86
2023/04/14 12:10:38;;;;;;;4.53;1.30;;;15.70;1.00;;;;;;5078888;28;20191;-88
2023/04/14 12:13:13;;;;;;;3.70;1.13;;;15.60;1.00;;;;;;5078913;28;20172;-88
2023/04/14 12:15:41;;;;;;;4.27;1.10;;;15.50;1.00;;;;;;5074772;28;20194;-87
2023/04/14 12:18:12;;;;;;;3.23;1.00;;;15.40;1.00;;;;;;5064821;28;20230;-87
2023/04/14 12:20:44;;;;;;;2.17;0.70;;;15.70;1.00;;;;;;5043789;28;20566;-88
2023/04/14 12:23:10;;;;;;;3.00;0.97;;;15.80;99.90;;;;;;5061389;28;20191;-88
2023/04/14 12:25:36;;;;;;;2.63;1.00;;;15.90;99.90;;;;;;5058523;28;20544;-87
2023/04/14 12:28:05;;;;;;;3.47;1.47;;;16.00;99.90;;;;;;5059677;28;20275;-87
2023/04/14 12:30:31;;;;;;;4.07;1.10;;;16.20;99.90;;;;;;5059392;28;20204;-86
2023/04/14 12:32:58;;;;;;;3.03;1.37;;;16.40;99.90;;;;;;5077223;28;20191;-87
2023/04/14 12:35:24;;;;;;;3.47;1.50;;;16.50;1.00;;;;;;5060361;28;20187;-87
2023/04/14 12:37:51;;;;;;;3.20;1.73;;;16.70;1.00;;;;;;5060015;28;20203;-87
2023/04/14 12:40:35;;;;;;;4.57;1.50;;;16.80;1.00;;;;;;5058610;28;20188;-86
2023/04/14 12:43:01;;;;;;;2.27;0.80;;;17.00;98.30;;;;;;5061460;28;20191;-87
2023/04/14 12:45:39;;;;;;;4.43;1.20;;;16.80;1.00;;;;;;5071636;28;20201;-87
2023/04/14 12:48:05;;;;;;;5.43;1.57;;;16.80;1.00;;;;;;5077801;28;20660;-86
2023/04/14 12:50:32;;;;;;;6.80;1.47;;;16.80;1.00;;;;;;5065581;28;20192;-88
2023/04/14 12:53:00;;;;;;;2.37;0.90;;;17.00;1.00;;;;;;5062427;28;20241;-87
2023/04/14 12:55:30;;;;;;;2.17;1.07;;;16.90;99.90;;;;;;5062479;28;20222;-86
2023/04/14 12:58:01;;;;;;;3.10;0.90;;;16.80;1.00;;;;;;5065434;28;20650;-88
2023/04/14 13:00:27;;;;;;;4.30;1.20;;;16.90;1.00;;;;;;5061345;28;20237;-87
2023/04/14 13:02:57;;;;;;;4.17;1.17;;;17.00;1.00;;;;;;5062566;28;20677;-88
2023/04/14 13:05:23;;;;;;;4.13;1.20;;;17.10;99.90;;;;;;5065639;28;20210;-87
2023/04/14 13:07:48;;;;;;;2.37;0.93;;;17.20;1.00;;;;;;5062626;28;20224;-88
2023/04/14 13:10:15;;;;;;;2.83;0.90;;;17.20;99.90;;;;;;5065367;28;20182;-87